• Join FlightAware (Why Join?)
  • Login
  • US Flag 
09:12PM EDT


 

Airport Tracker/Info


-or-


 

Live Flight TrackerFlight Track Log ✈ UPS1477 ✈ 18-Jul-2013 ✈ KLCK - KSDF

Flight Track Log - Related Links

Times and Time Zones

All times are in EDT time to prevent confusion due to time zone crossing. See the UPS1477 flight status page for this flight to view local times or setup timezone preferences in your user account.

Time Position Orientation Groundspeed Altitude Reporting Facility
EDT Latitude Longitude Course Direction KTS MPH feet Rate Location/Type
12:00AM 39.8000 -82.9490 224° Southwest 166 191 2,000  Level FlightAware
12:00AM 39.7910 -82.9600 223° Southwest 182 209 2,300 1,020 Climbing FlightAware
12:00AM 39.7690 -82.9890 225° Southwest 223 257 2,800 720 Climbing FlightAware
12:01AM 39.7520 -83.0120 226° Southwest 229 264 3,000 1,320 Climbing FlightAware
12:01AM 39.7340 -83.0350 225° Southwest 231 266 3,900 2,160 Climbing FlightAware
12:02AM 39.7100 -83.0650 224° Southwest 258 297 4,900 2,460 Climbing FlightAware
12:02AM 39.6890 -83.0910 224° Southwest 264 304 6,100 3,180 Climbing FlightAware
12:02AM 39.6630 -83.1230 223° Southwest 262 302 7,800 3,120 Climbing FlightAware
12:03AM 39.6400 -83.1520 224° Southwest 264 304 9,000 1,980 Climbing FlightAware
12:04AM 39.5990 -83.2050 225° Southwest 304 350 10,200 1,200 Climbing FlightAware
12:04AM 39.5670 -83.2720 238° Southwest 353 406 10,800 1,920 Climbing FlightAware
12:05AM 39.5340 -83.3610 244° Southwest 374 430 12,900 3,000 Climbing FlightAware
12:06AM 39.5050 -83.4370 244° Southwest 388 447 14,900 2,040 Climbing FlightAware
12:07AM 39.4630 -83.5490 244° Southwest 403 464 16,100 2,700 Climbing FlightAware
12:07AM 39.4270 -83.6410 243° Southwest 427 491 19,100 2,520 Climbing FlightAware
12:08AM 39.3810 -83.7590 243° Southwest 432 497 20,000 540 Climbing FlightAware
12:09AM 39.3460 -83.8520 244° Southwest 432 497 20,000  Level FlightAware
12:09AM 39.3080 -83.9500 243° Southwest 434 499 20,000  Level FlightAware
12:10AM 39.2730 -84.0370 243° Southwest 434 499 20,000  Level FlightAware
12:13AM 39.1580 -84.3290 243° Southwest 434 499 20,000  Level FlightAware
12:13AM 39.1210 -84.4230 243° Southwest 434 499 20,000  Level FlightAware
12:14AM 39.0540 -84.6080 245° Southwest 436 502 20,000  Level FlightAware
12:15AM 39.0150 -84.6960 240° Southwest 435 501 20,000 -240 Level FlightAware
12:16AM 38.9540 -84.7720 224° Southwest 429 494 19,700 -2,100 Descending FlightAware
12:16AM 38.8690 -84.8470 214° Southwest 429 494 16,600 -3,060 Descending FlightAware
12:18AM 38.7640 -84.9460 216° Southwest 406 467 13,900 -1,680 Descending FlightAware
12:18AM 38.7240 -84.9850 217° Southwest 401 461 13,800 -900 Descending FlightAware
12:19AM 38.6360 -85.0710 217° Southwest 385 443 12,600 -1,020 Descending FlightAware
12:20AM 38.5520 -85.1500 216° Southwest 382 440 11,800 -900 Descending FlightAware
12:21AM 38.4860 -85.2140 217° Southwest 349 402 11,100 -960 Descending FlightAware
12:22AM 38.4400 -85.2590 217° Southwest 330 380 10,500 -780 Descending FlightAware
12:22AM 38.3730 -85.3220 216° Southwest 292 336 9,900 -540 Descending FlightAware
12:23AM 38.3620 -85.3330 218° Southwest 286 329 9,900 -840 Level FlightAware
12:23AM 38.3360 -85.3570 216° Southwest 283 326 9,400 -1,380 Descending FlightAware
12:23AM 38.3230 -85.3690 216° Southwest 281 323 9,100 -1,200 Descending FlightAware
12:24AM 38.2940 -85.3970 217° Southwest 278 320 8,600 -1,200 Descending FlightAware
12:24AM 38.2650 -85.4240 216° Southwest 276 318 8,000 -1,440 Descending FlightAware
12:25AM 38.2360 -85.4510 216° Southwest 278 320 7,300 -1,380 Descending FlightAware
12:25AM 38.2160 -85.4720 220° Southwest 275 316 6,900 -1,020 Descending FlightAware
12:25AM 38.2000 -85.4870 216° Southwest 273 314 6,700 -1,140 Descending FlightAware
12:26AM 38.1710 -85.5130 215° Southwest 272 313 6,100 -1,200 Descending FlightAware
12:26AM 38.1430 -85.5380 215° Southwest 268 308 5,600 -1,320 Descending FlightAware
12:27AM 38.1140 -85.5660 217° Southwest 268 308 4,900 -1,500 Descending FlightAware
12:27AM 38.0820 -85.5830 203° Southwest 269 310 4,200 -1,140 Descending FlightAware
12:28AM 38.0470 -85.5780 174° South 262 302 3,800 -1,080 Descending FlightAware
12:28AM 38.0130 -85.5720 172° South 261 300 3,200 -1,080 Descending FlightAware
12:28AM 37.9840 -85.5680 174° South 253 291 2,900 -540 Descending FlightAware
12:29AM 37.9710 -85.5660 173° South 244 281 2,900  Level FlightAware
12:29AM 37.9350 -85.5810 198° South 208 239 2,900 60 Level FlightAware
12:30AM 37.9320 -85.6010 259° West 207 238 3,000  Climbing FlightAware
12:30AM 37.9330 -85.6100 278° West 208 239 2,900 -300 Descending FlightAware
12:30AM 37.9390 -85.6210 305° West 208 239 2,900  Level FlightAware
12:30AM 37.9510 -85.6350 317° Northwest 206 237 2,900  Level FlightAware
12:31AM 37.9740 -85.6560 324° Northwest 208 239 2,900  Level FlightAware
12:31AM 37.9970 -85.6650 343° North 207 238 2,900  Level FlightAware
12:32AM 38.0230 -85.6750 343° North 206 237 2,900  Level FlightAware
12:32AM 38.0400 -85.6810 344° North 202 232 2,900 -720 Level FlightAware
12:32AM 38.0680 -85.6900 346° North 172 198 2,300 -1,080 Descending FlightAware
12:33AM 38.0870 -85.6970 344° North 157 181 1,900 -900 Descending FlightAware
12:33AM 38.1070 -85.7040 345° North 156 180 1,500 -840 Descending FlightAware
12:34AM 38.1270 -85.7110 345° North 156 180 1,100 -840 Descending FlightAware
12:34AM 38.1390 -85.7150 345° North 156 180 900 -720 Descending FlightAware
12:35AM 38.1570 -85.7210 345° North 153 176 600 -720 Descending FlightAware
12:35AM 38.1700 -85.7250 346° North 150 173 -1,920 Descending FlightAware
12:35AM 38.1830 -85.7300 343° North 27 31  Level FlightAware
12:36AM 38.1840 -85.7320 302° West 17 20  Level FlightAware
12:36AM 38.1830 -85.7330 218° Southwest 31 36  Level FlightAware
12:37AM 38.1790 -85.7340 191° South 32 37  Level FlightAware
12:38AM 38.1780 -85.7360 238° Southwest 15 17  Level FlightAware
12:39AM 38.1790 -85.7390 293° West 19 22  Level FlightAware
12:39AM 38.1800 -85.7420 293° West 19 22  Level FlightAware
12:40AM 38.1800 -85.7430 270° West 25 29  Level FlightAware
12:40AM 38.1790 -85.7440 218° Southwest 29 33  Level FlightAware
12:41AM 38.1770 -85.7430 159° South 18 21  Level FlightAware